createdAt,value
2018-10-18T00:04:34.111Z,99830.53
2018-10-18T00:10:38.977Z,99826.91
2018-10-18T00:16:44.107Z,99827.32
2018-10-18T00:22:49.588Z,99823.36
2018-10-18T00:28:54.261Z,99826.94
2018-10-18T00:34:58.977Z,99827.88
2018-10-18T00:41:03.729Z,99825.57
2018-10-18T00:47:08.408Z,99826.73
2018-10-18T00:53:13.096Z,99825.20
2018-10-18T00:59:17.876Z,99824.08
2018-10-18T01:05:22.576Z,99819.66
2018-10-18T01:11:27.379Z,99820.86
2018-10-18T01:17:32.844Z,99826.81
2018-10-18T01:23:37.795Z,99827.97
2018-10-18T01:29:42.557Z,99828.27
2018-10-18T01:35:47.304Z,99830.95
2018-10-18T01:41:52.162Z,99825.67
2018-10-18T01:47:56.971Z,99827.39
2018-10-18T01:54:02.032Z,99828.93
2018-10-18T02:00:08.548Z,99830.27
2018-10-18T02:06:13.386Z,99835.29
2018-10-18T02:12:18.155Z,99831.09
2018-10-18T02:18:22.948Z,99833.27
2018-10-18T02:24:28.300Z,99835.38
2018-10-18T02:30:34.020Z,99837.55
2018-10-18T02:36:38.873Z,99834.15
2018-10-18T02:42:43.596Z,99838.48
2018-10-18T02:48:48.860Z,99841.17
2018-10-18T02:54:53.558Z,99847.25
2018-10-18T03:00:58.606Z,99846.19
2018-10-18T03:07:03.641Z,99843.23
2018-10-18T03:13:08.416Z,99856.80
2018-10-18T03:19:13.488Z,99873.14
2018-10-18T03:25:18.562Z,99869.17
2018-10-18T03:31:23.673Z,99874.66
2018-10-18T03:37:28.400Z,99874.41
2018-10-18T03:43:33.085Z,99878.49
2018-10-18T03:49:37.847Z,99875.45
2018-10-18T03:55:42.679Z,99877.34
2018-10-18T04:01:47.492Z,99885.08
2018-10-18T04:07:52.253Z,99879.45
2018-10-18T04:13:57.422Z,99887.39
2018-10-18T04:20:02.263Z,99897.05
2018-10-18T04:26:07.003Z,99894.80
2018-10-18T04:32:11.762Z,99887.45
2018-10-18T04:38:16.482Z,99898.77
2018-10-18T04:44:21.850Z,99908.25
2018-10-18T04:50:26.596Z,99911.77
2018-10-18T04:56:31.332Z,99925.80
2018-10-18T05:02:36.417Z,99923.97
2018-10-18T05:08:41.191Z,99926.63
2018-10-18T05:14:45.888Z,99937.55
2018-10-18T05:20:50.643Z,99935.44
2018-10-18T05:26:55.760Z,99943.27
2018-10-18T05:33:00.518Z,99950.99
2018-10-18T05:39:08.872Z,99946.77
2018-10-18T05:45:13.742Z,99958.66
2018-10-18T05:51:18.785Z,99964.35
2018-10-18T05:57:23.671Z,99979.32
2018-10-18T06:03:29.036Z,99981.22
2018-10-18T06:09:35.209Z,99988.47
2018-10-18T06:15:39.931Z,99993.43
2018-10-18T06:21:45.046Z,99993.28
2018-10-18T06:27:50.260Z,99987.59
2018-10-18T06:33:54.994Z,99994.73
2018-10-18T06:39:59.799Z,100000.04
2018-10-18T06:46:04.786Z,99990.42
2018-10-18T06:52:09.495Z,99995.87
2018-10-18T06:58:15.281Z,99996.56
2018-10-18T07:04:20.028Z,100004.75
2018-10-18T07:10:24.741Z,100000.53
2018-10-18T07:16:29.978Z,100000.72
2018-10-18T07:22:34.678Z,100008.34
2018-10-18T07:28:39.373Z,100001.17
2018-10-18T07:34:44.088Z,100003.10
2018-10-18T07:40:48.947Z,100001.48
2018-10-18T07:46:53.725Z,100003.81
2018-10-18T07:52:58.434Z,99994.63
2018-10-18T07:59:03.975Z,99998.11
2018-10-18T08:05:09.803Z,100002.86
2018-10-18T08:11:15.204Z,100010.95
2018-10-18T08:17:20.042Z,100027.68
2018-10-18T08:23:24.796Z,100019.75
2018-10-18T08:29:30.103Z,100022.08
2018-10-18T08:35:34.896Z,100026.60
2018-10-18T08:41:40.269Z,100034.47
2018-10-18T08:47:45.394Z,100040.22
2018-10-18T08:53:50.102Z,100048.66
2018-10-18T08:59:54.986Z,100059.88
2018-10-18T09:05:59.700Z,100069.53
2018-10-18T09:12:04.523Z,100063.00
2018-10-18T09:18:09.271Z,100068.64
2018-10-18T09:24:14.066Z,100074.16
2018-10-18T09:30:18.885Z,100074.18
2018-10-18T09:36:23.727Z,100077.48
2018-10-18T09:42:28.521Z,100074.70
2018-10-18T09:48:33.857Z,100073.63
2018-10-18T09:54:38.750Z,100078.78
2018-10-18T10:00:48.612Z,100077.44
2018-10-18T10:06:54.004Z,100076.98
2018-10-18T10:12:58.785Z,100084.56
2018-10-18T10:19:04.409Z,100087.94
2018-10-18T10:25:09.258Z,100081.56
2018-10-18T10:31:14.652Z,100072.98
2018-10-18T10:37:19.762Z,100065.59
2018-10-18T10:43:24.574Z,100062.84
2018-10-18T10:49:29.368Z,100074.87
2018-10-18T10:55:34.129Z,100073.61
2018-10-18T11:01:38.928Z,100068.56
2018-10-18T11:07:43.985Z,100056.60
2018-10-18T11:13:49.065Z,100040.19
2018-10-18T11:19:53.947Z,100044.97
2018-10-18T11:25:58.854Z,100040.87
2018-10-18T11:32:03.661Z,100039.22
2018-10-18T11:38:08.715Z,100039.36
2018-10-18T11:44:13.805Z,100048.58
2018-10-18T11:50:18.505Z,100043.22
2018-10-18T11:56:23.338Z,100030.63
2018-10-18T12:02:28.608Z,100025.23
2018-10-18T12:08:33.713Z,100030.04
2018-10-18T12:14:38.401Z,100032.36
2018-10-18T12:20:43.268Z,100030.87
2018-10-18T12:26:48.022Z,100026.01
2018-10-18T12:32:52.737Z,100037.90
2018-10-18T12:38:57.812Z,100050.69
2018-10-18T12:45:02.713Z,100050.52
2018-10-18T12:51:07.427Z,100053.27
2018-10-18T12:57:13.771Z,100058.48
2018-10-18T13:03:18.486Z,100058.70
2018-10-18T13:09:23.391Z,100056.60
2018-10-18T13:15:28.463Z,100056.18
2018-10-18T13:21:33.173Z,100060.83
2018-10-18T13:27:38.300Z,100065.30
2018-10-18T13:33:43.388Z,100067.19
2018-10-18T13:39:50.962Z,100067.87
2018-10-18T13:45:55.730Z,100061.03
2018-10-18T13:52:01.336Z,100055.62
2018-10-18T13:58:06.761Z,100052.84
2018-10-18T14:04:11.517Z,100062.45
2018-10-18T14:10:16.154Z,100066.76
2018-10-18T14:16:20.942Z,100059.20
2018-10-18T14:22:25.719Z,100071.36
2018-10-18T14:28:30.381Z,100069.64
2018-10-18T14:34:35.468Z,100064.42
2018-10-18T14:40:40.579Z,100071.09
2018-10-18T14:46:45.516Z,100065.70
2018-10-18T14:52:50.238Z,100068.91
2018-10-18T14:58:55.722Z,100053.20
2018-10-18T15:05:00.647Z,100058.79
2018-10-18T15:11:06.383Z,100056.01
2018-10-18T15:17:11.173Z,100064.40
2018-10-18T15:23:17.146Z,100067.91
2018-10-18T15:29:21.787Z,100067.31
2018-10-18T15:35:27.118Z,100063.70
2018-10-18T15:41:31.853Z,100058.04
2018-10-18T15:47:36.730Z,100062.00
2018-10-18T15:53:42.076Z,100069.56
2018-10-18T15:59:47.746Z,100068.33
2018-10-18T16:05:52.853Z,100062.26
2018-10-18T16:11:57.587Z,100067.72
2018-10-18T16:18:02.690Z,100074.92
2018-10-18T16:24:07.656Z,100073.59
2018-10-18T16:30:12.773Z,100093.36
2018-10-18T16:36:17.606Z,100095.20
2018-10-18T16:42:22.461Z,100101.31
2018-10-18T16:48:27.569Z,100110.53
2018-10-18T16:54:32.301Z,100118.47
2018-10-18T17:00:37.029Z,100118.45
2018-10-18T17:06:42.134Z,100122.36
2018-10-18T17:12:47.272Z,100127.12
2018-10-18T17:18:51.988Z,100127.98
2018-10-18T17:24:56.787Z,100141.70
2018-10-18T17:31:01.565Z,100145.02
2018-10-18T17:37:06.731Z,100155.48
2018-10-18T17:43:12.244Z,100159.63
2018-10-18T17:49:17.739Z,100151.77
2018-10-18T17:55:22.984Z,100160.76
2018-10-18T18:01:28.122Z,100161.66
2018-10-18T18:07:32.964Z,100163.38
2018-10-18T18:13:38.636Z,100166.70
2018-10-18T18:19:44.897Z,100166.66
2018-10-18T18:25:50.088Z,100175.87
2018-10-18T18:31:54.985Z,100177.83
2018-10-18T18:37:59.792Z,100182.21
2018-10-18T18:44:04.955Z,100174.69
2018-10-18T18:50:10.102Z,100190.66
2018-10-18T18:56:15.200Z,100191.08
2018-10-18T19:02:19.913Z,100200.66
2018-10-18T19:08:24.675Z,100201.66
2018-10-18T19:14:29.436Z,100207.25
2018-10-18T19:20:34.212Z,100211.95
2018-10-18T19:26:39.029Z,100214.23
2018-10-18T19:32:44.058Z,100221.91
2018-10-18T19:38:49.515Z,100227.70
2018-10-18T19:44:54.571Z,100228.35
2018-10-18T19:50:59.284Z,100235.09
2018-10-18T19:57:04.060Z,100234.91
2018-10-18T20:03:08.880Z,100238.20
2018-10-18T20:09:14.080Z,100241.95
2018-10-18T20:15:18.921Z,100243.09
2018-10-18T20:21:24.510Z,100247.38
2018-10-18T20:27:29.532Z,100242.63
2018-10-18T20:33:34.397Z,100245.20
2018-10-18T20:39:39.270Z,100252.70
2018-10-18T20:45:43.935Z,100253.30
2018-10-18T20:51:48.970Z,100248.67
2018-10-18T20:57:53.758Z,100251.25
2018-10-18T21:03:59.118Z,100248.15
2018-10-18T21:10:04.009Z,100245.13
2018-10-18T21:16:09.033Z,100238.81
2018-10-18T21:22:13.826Z,100244.52
2018-10-18T21:28:18.594Z,100231.63
2018-10-18T21:34:23.795Z,100247.28
2018-10-18T21:40:28.635Z,100237.89
2018-10-18T21:46:33.743Z,100234.86
2018-10-18T21:52:39.307Z,100239.59
2018-10-18T21:58:44.364Z,100239.14
2018-10-18T22:04:49.092Z,100236.28
2018-10-18T22:10:53.932Z,100228.22
2018-10-18T22:16:59.068Z,100224.54
2018-10-18T22:23:04.192Z,100229.26
2018-10-18T22:29:09.096Z,100226.99
2018-10-18T22:35:14.127Z,100223.50
2018-10-18T22:41:18.877Z,100226.23
2018-10-18T22:47:23.757Z,100225.52
2018-10-18T22:53:28.771Z,100224.30
2018-10-18T22:59:33.621Z,100224.84
2018-10-18T23:05:38.727Z,100229.02
2018-10-18T23:11:43.478Z,100216.81
2018-10-18T23:17:48.344Z,100218.36
2018-10-18T23:23:53.150Z,100216.43
2018-10-18T23:29:58.366Z,100215.26
2018-10-18T23:36:03.448Z,100211.94
2018-10-18T23:42:08.207Z,100214.22
2018-10-18T23:48:19.554Z,100209.52
2018-10-18T23:54:24.325Z,100208.72
